Time;durP1;ratioP1;P1;durP2;ratioP2;P2;SDS_P1;SDS_P2;PMS_P1;PMS_P2;Temp;Humidity;BMP_temperature;BMP_pressure;BME280_temperature;BME280_humidity;BME280_pressure;Samples;Min_cycle;Max_cycle;Signal;HPM_P1;HPM_P2
2020/12/15 00:01:22;;;;;;;0.20;0.20;;;;;;;6.58;89.99;99777.47;5081038;28;20554;-68
2020/12/15 00:03:49;;;;;;;0.75;0.75;;;;;;;6.64;89.88;99781.75;5082444;28;20049;-68
2020/12/15 00:06:15;;;;;;;0.30;0.30;;;;;;;6.63;89.80;99777.47;5082385;28;20027;-69
2020/12/15 00:08:40;;;;;;;0.60;0.57;;;;;;;6.57;90.04;99781.78;5082524;28;20028;-70
2020/12/15 00:11:05;;;;;;;1.20;1.13;;;;;;;6.61;90.21;99790.38;5085518;28;20024;-70
2020/12/15 00:13:31;;;;;;;0.20;0.20;;;;;;;6.63;90.16;99785.22;5086197;28;20040;-69
2020/12/15 00:15:56;;;;;;;0.30;0.30;;;;;;;6.71;89.92;99798.09;5085900;28;20020;-69
2020/12/15 00:18:21;;;;;;;0.30;0.30;;;;;;;6.77;89.57;99803.22;5086038;28;20028;-71
2020/12/15 00:20:47;;;;;;;0.20;0.20;;;;;;;6.66;89.93;99792.94;5086045;28;20020;-69
2020/12/15 00:23:12;;;;;;;0.30;0.30;;;;;;;6.65;89.85;99794.66;5085851;28;20028;-69
2020/12/15 00:25:37;;;;;;;0.20;0.20;;;;;;;6.72;89.72;99803.25;5085813;28;20065;-69
2020/12/15 00:28:03;;;;;;;2.38;2.28;;;;;;;6.73;90.03;99801.50;5085830;28;20029;-69
2020/12/15 00:30:28;;;;;;;8.85;1.40;;;;;;;6.82;89.98;99801.50;5085900;28;20029;-69
2020/12/15 00:32:54;;;;;;;0.68;0.68;;;;;;;6.80;89.52;99808.38;5085452;28;20025;-69
2020/12/15 00:35:20;;;;;;;0.22;0.22;;;;;;;6.76;89.95;99806.66;5085961;28;20024;-69
2020/12/15 00:37:46;;;;;;;0.30;0.30;;;;;;;6.75;89.92;99810.09;5085680;28;20027;-70
2020/12/15 00:40:11;;;;;;;0.40;0.40;;;;;;;6.75;90.24;99813.56;5085690;28;20035;-70
2020/12/15 00:42:36;;;;;;;0.40;0.40;;;;;;;6.76;89.89;99804.06;5084186;28;20048;-70
2020/12/15 00:45:02;;;;;;;1.52;1.50;;;;;;;6.79;90.12;99811.78;5085751;28;20021;-70
2020/12/15 00:47:28;;;;;;;0.43;0.43;;;;;;;6.85;89.89;99800.63;5085281;28;20016;-69
2020/12/15 00:49:53;;;;;;;0.30;0.30;;;;;;;6.79;90.00;99797.19;5085573;28;20043;-69
2020/12/15 00:52:24;;;;;;;0.25;0.25;;;;;;;6.81;90.13;99804.94;5085462;28;20045;-69
2020/12/15 00:54:49;;;;;;;0.40;0.40;;;;;;;6.88;90.10;99813.50;5085375;28;20024;-69
2020/12/15 00:57:15;;;;;;;0.30;0.30;;;;;;;6.90;89.95;99804.06;5085450;28;20142;-68
2020/12/15 00:59:40;;;;;;;1.05;1.05;;;;;;;6.86;90.01;99805.78;5085349;28;20021;-68
2020/12/15 01:02:05;;;;;;;0.20;0.20;;;;;;;6.91;89.91;99813.50;5084851;28;20043;-70
2020/12/15 01:04:31;;;;;;;0.30;0.30;;;;;;;6.90;90.08;99810.06;5085257;28;20080;-69
2020/12/15 01:06:56;;;;;;;0.82;0.82;;;;;;;6.92;89.75;99798.00;5084941;28;20046;-68
2020/12/15 01:09:22;;;;;;;0.25;0.25;;;;;;;6.93;89.90;99806.63;5083782;28;20025;-70
2020/12/15 01:11:47;;;;;;;0.22;0.22;;;;;;;6.96;89.91;99810.91;5085022;28;20096;-69
2020/12/15 01:14:12;;;;;;;1.35;1.35;;;;;;;6.96;90.00;99814.34;5085044;28;20035;-69
2020/12/15 01:16:39;;;;;;;1.55;1.48;;;;;;;6.94;89.82;99808.34;5084641;28;20024;-69
2020/12/15 01:19:05;;;;;;;0.30;0.30;;;;;;;6.99;89.69;99818.63;5084917;28;20052;-69
2020/12/15 01:21:30;;;;;;;0.30;0.30;;;;;;;6.95;89.74;99822.94;5083960;28;20031;-69
2020/12/15 01:23:56;;;;;;;0.65;0.65;;;;;;;7.01;89.58;99825.50;5084987;28;20050;-69
2020/12/15 01:26:22;;;;;;;3.10;2.83;;;;;;;6.97;89.73;99822.94;5084688;28;20021;-69
2020/12/15 01:28:49;;;;;;;1.25;1.25;;;;;;;6.97;89.85;99817.78;5084858;28;20029;-70
2020/12/15 01:31:14;;;;;;;0.55;0.52;;;;;;;6.97;89.92;99820.34;5084497;28;20138;-70
2020/12/15 01:33:40;;;;;;;0.20;0.20;;;;;;;6.99;89.87;99824.66;5084759;28;20032;-69
2020/12/15 01:36:05;;;;;;;0.30;0.30;;;;;;;6.96;89.95;99818.66;5084361;28;20077;-69
2020/12/15 01:38:31;;;;;;;0.25;0.25;;;;;;;6.97;90.02;99830.69;5082392;28;20023;-69
2020/12/15 01:40:56;;;;;;;0.30;0.30;;;;;;;7.00;89.78;99826.38;5083904;28;20031;-69
2020/12/15 01:43:22;;;;;;;0.60;0.60;;;;;;;7.00;89.92;99817.75;5084424;28;20093;-69
2020/12/15 01:45:47;;;;;;;0.20;0.20;;;;;;;7.04;89.87;99827.22;5084065;28;20029;-69
2020/12/15 01:48:13;;;;;;;0.30;0.30;;;;;;;7.05;89.88;99831.53;5084746;28;20029;-68
2020/12/15 01:50:39;;;;;;;1.30;1.20;;;;;;;7.03;89.73;99823.78;5084448;28;20469;-69
2020/12/15 01:53:09;;;;;;;0.35;0.35;;;;;;;7.07;89.56;99820.34;5084289;28;20017;-68
2020/12/15 01:55:37;;;;;;;0.50;0.50;;;;;;;7.05;89.70;99818.63;5084413;28;20017;-69
2020/12/15 01:58:03;;;;;;;0.95;0.95;;;;;;;7.09;89.63;99807.44;5084013;28;20099;-70
2020/12/15 02:00:29;;;;;;;0.55;0.55;;;;;;;7.04;89.54;99822.94;5083971;28;20032;-70
2020/12/15 02:02:54;;;;;;;0.30;0.30;;;;;;;7.09;89.76;99812.59;5083875;28;20044;-69
2020/12/15 02:05:20;;;;;;;0.30;0.30;;;;;;;7.07;89.70;99810.03;5084036;28;20024;-69
2020/12/15 02:07:46;;;;;;;0.20;0.20;;;;;;;7.11;89.58;99818.59;5083837;28;20434;-69
2020/12/15 02:10:11;;;;;;;0.20;0.20;;;;;;;7.09;89.52;99822.94;5084126;28;20023;-69
2020/12/15 02:12:37;;;;;;;0.20;0.20;;;;;;;7.08;89.55;99810.88;5083806;28;20025;-69
2020/12/15 02:15:04;;;;;;;0.30;0.30;;;;;;;7.08;89.54;99808.28;5083615;28;20115;-69
2020/12/15 02:17:29;;;;;;;0.68;0.68;;;;;;;7.10;89.55;99806.56;5083601;28;20021;-69
2020/12/15 02:20:05;;;;;;;1.73;1.63;;;;;;;7.04;89.55;99811.75;5083792;28;20031;-70
2020/12/15 02:22:30;;;;;;;0.30;0.30;;;;;;;7.06;89.46;99807.44;5083824;28;20028;-70
2020/12/15 02:24:55;;;;;;;0.30;0.30;;;;;;;7.09;89.50;99807.44;5083664;28;20032;-70
2020/12/15 02:27:21;;;;;;;0.22;0.22;;;;;;;7.02;89.53;99804.00;5083579;28;20076;-70
2020/12/15 02:29:46;;;;;;;0.25;0.25;;;;;;;7.04;89.41;99811.75;5083700;28;20027;-70
2020/12/15 02:32:12;;;;;;;0.38;0.38;;;;;;;7.06;89.33;99808.28;5083107;28;20039;-70
2020/12/15 02:34:37;;;;;;;0.30;0.30;;;;;;;7.06;89.45;99826.34;5083471;28;20012;-69
2020/12/15 02:37:10;;;;;;;1.30;1.30;;;;;;;7.03;89.74;99821.19;5082043;28;20123;-69
2020/12/15 02:39:35;;;;;;;0.30;0.30;;;;;;;7.03;89.72;99817.75;5083708;28;20127;-70
2020/12/15 02:42:01;;;;;;;0.32;0.32;;;;;;;7.13;88.94;99813.41;5083605;28;20024;-70
2020/12/15 02:44:26;;;;;;;0.63;0.63;;;;;;;7.10;89.07;99811.72;5083498;28;20058;-69
2020/12/15 02:46:52;;;;;;;0.35;0.35;;;;;;;7.07;89.30;99806.56;5082988;28;20032;-68
2020/12/15 02:49:17;;;;;;;0.30;0.30;;;;;;;7.04;89.30;99801.44;5082360;28;20088;-68
2020/12/15 02:51:48;;;;;;;0.40;0.40;;;;;;;7.03;89.57;99807.44;5083548;28;20021;-69
2020/12/15 02:54:15;;;;;;;0.90;0.90;;;;;;;7.03;89.42;99820.34;5083548;28;20029;-70
2020/12/15 02:56:40;;;;;;;0.40;0.40;;;;;;;7.04;89.62;99819.50;5083223;28;20074;-70
2020/12/15 02:59:06;;;;;;;0.38;0.38;;;;;;;7.05;89.29;99819.50;5083385;28;20020;-70
2020/12/15 03:01:31;;;;;;;0.93;0.93;;;;;;;7.02;89.21;99818.63;5083009;28;20021;-70
2020/12/15 03:03:56;;;;;;;0.60;0.60;;;;;;;7.03;89.60;99822.91;5083109;28;20213;-70
2020/12/15 03:06:22;;;;;;;0.77;0.77;;;;;;;7.01;89.42;99820.34;5083051;28;20024;-70
2020/12/15 03:08:47;;;;;;;0.20;0.20;;;;;;;6.96;89.56;99808.31;5081852;28;20023;-70
2020/12/15 03:11:13;;;;;;;0.25;0.25;;;;;;;7.06;89.45;99816.03;5083330;28;20033;-70
2020/12/15 03:13:38;;;;;;;2.90;2.70;;;;;;;7.03;89.47;99818.63;5083028;28;20043;-70
2020/12/15 03:16:03;;;;;;;0.40;0.40;;;;;;;7.02;89.59;99813.47;5082799;28;20016;-69
2020/12/15 03:18:29;;;;;;;0.73;0.73;;;;;;;7.04;89.51;99814.34;5083229;28;20016;-70
2020/12/15 03:20:55;;;;;;;0.45;0.45;;;;;;;7.01;89.42;99822.09;5082990;28;20035;-70
2020/12/15 03:23:22;;;;;;;0.22;0.22;;;;;;;7.09;88.84;99807.44;5081996;28;20025;-70
2020/12/15 03:25:52;;;;;;;0.85;0.85;;;;;;;7.03;89.33;99820.34;5082843;28;20339;-68
2020/12/15 03:28:21;;;;;;;1.08;1.05;;;;;;;7.03;89.14;99826.38;5081633;28;20025;-70
2020/12/15 03:30:47;;;;;;;0.30;0.30;;;;;;;6.95;89.29;99828.09;5082930;28;20078;-69
2020/12/15 03:33:12;;;;;;;0.30;0.30;;;;;;;7.03;89.27;99830.66;5082948;28;20020;-69
2020/12/15 03:35:38;;;;;;;0.20;0.20;;;;;;;6.99;89.02;99823.81;5082909;28;20031;-70
2020/12/15 03:38:03;;;;;;;0.43;0.43;;;;;;;6.92;89.37;99815.22;5082926;28;20035;-69
2020/12/15 03:40:28;;;;;;;6.30;1.85;;;;;;;6.90;89.77;99825.53;5082955;28;20103;-69
2020/12/15 03:42:54;;;;;;;0.40;0.40;;;;;;;6.97;89.38;99831.56;5082855;28;20028;-69
2020/12/15 03:45:19;;;;;;;0.60;0.60;;;;;;;6.94;89.51;99827.25;5084443;28;20024;-69
2020/12/15 03:47:45;;;;;;;0.30;0.30;;;;;;;6.92;89.26;99826.41;5086547;28;20032;-69
2020/12/15 03:50:10;;;;;;;0.40;0.40;;;;;;;6.91;89.10;99816.94;5086662;28;20077;-69
2020/12/15 03:52:36;;;;;;;1.70;1.60;;;;;;;6.86;89.46;99828.13;5086591;28;20024;-69
2020/12/15 03:55:05;;;;;;;0.40;0.40;;;;;;;6.86;89.54;99830.72;5086630;28;20025;-69
2020/12/15 03:57:31;;;;;;;0.75;0.75;;;;;;;6.85;89.37;99829.88;5086429;28;20034;-70
2020/12/15 03:59:56;;;;;;;5.68;3.15;;;;;;;6.88;89.37;99834.16;5086727;28;20056;-70
2020/12/15 04:02:22;;;;;;;0.30;0.30;;;;;;;6.85;89.49;99829.00;5086109;28;20049;-70
2020/12/15 04:04:48;;;;;;;0.30;0.30;;;;;;;6.86;89.35;99834.16;5086418;28;20027;-69
2020/12/15 04:07:13;;;;;;;0.30;0.30;;;;;;;6.82;89.19;99832.47;5086193;28;20024;-70
2020/12/15 04:09:39;;;;;;;0.40;0.40;;;;;;;6.80;89.12;99837.63;5085007;28;20031;-69
2020/12/15 04:12:05;;;;;;;0.30;0.30;;;;;;;6.74;89.28;99831.63;5086284;28;20385;-69
2020/12/15 04:14:30;;;;;;;0.30;0.30;;;;;;;6.75;89.57;99826.44;5086294;28;20032;-69
2020/12/15 04:16:56;;;;;;;0.30;0.30;;;;;;;6.79;89.11;99832.44;5085877;28;20020;-69
2020/12/15 04:19:21;;;;;;;0.20;0.20;;;;;;;6.73;89.35;99823.00;5086292;28;20027;-69
2020/12/15 04:21:47;;;;;;;1.10;1.10;;;;;;;6.77;88.98;99832.44;5086166;28;20020;-69
2020/12/15 04:24:12;;;;;;;0.30;0.30;;;;;;;6.72;88.91;99835.91;5086140;28;20020;-69
2020/12/15 04:26:38;;;;;;;0.30;0.30;;;;;;;6.81;89.00;99820.41;5085871;28;20174;-69
2020/12/15 04:29:03;;;;;;;0.25;0.25;;;;;;;6.78;88.63;99826.44;5086123;28;20096;-69
2020/12/15 04:31:30;;;;;;;0.20;0.20;;;;;;;6.69;88.87;99829.88;5085795;28;20139;-69
2020/12/15 04:33:55;;;;;;;2.15;2.05;;;;;;;6.73;88.83;99820.44;5085953;28;20048;-69
2020/12/15 04:36:21;;;;;;;1.83;1.75;;;;;;;6.62;89.23;99817.88;5085896;28;20020;-69
2020/12/15 04:38:47;;;;;;;0.20;0.20;;;;;;;6.62;89.42;99812.72;5085657;28;20099;-69
2020/12/15 04:41:12;;;;;;;0.30;0.30;;;;;;;6.79;88.69;99811.78;5086155;28;20147;-68
2020/12/15 04:43:40;;;;;;;0.30;0.30;;;;;;;6.55;89.33;99813.59;5085778;28;20539;-68
2020/12/15 04:46:11;;;;;;;0.30;0.30;;;;;;;6.63;89.19;99811.84;5085292;28;20016;-68
2020/12/15 04:48:42;;;;;;;0.20;0.20;;;;;;;6.64;89.21;99818.75;5085575;28;20047;-69
2020/12/15 04:51:08;;;;;;;0.28;0.28;;;;;;;6.63;88.95;99806.69;5085595;28;20021;-69
2020/12/15 04:53:36;;;;;;;0.20;0.20;;;;;;;6.57;89.50;99814.44;5085535;28;20055;-69
2020/12/15 04:56:21;;;;;;;0.30;0.30;;;;;;;6.57;89.48;99815.31;5083202;28;20121;-68
2020/12/15 04:58:48;;;;;;;0.65;0.65;;;;;;;6.63;89.54;99811.84;5085441;28;20127;-69
2020/12/15 05:01:14;;;;;;;0.75;0.75;;;;;;;6.85;88.43;99816.97;5085092;28;20419;-68
2020/12/15 05:03:42;;;;;;;0.20;0.20;;;;;;;6.61;89.11;99804.97;5083753;28;20060;-69
2020/12/15 05:06:15;;;;;;;0.52;0.52;;;;;;;6.59;89.35;99815.28;5085426;28;20364;-68
2020/12/15 05:08:46;;;;;;;2.67;2.47;;;;;;;6.65;89.01;99811.84;5085161;28;20035;-69
2020/12/15 05:11:11;;;;;;;0.40;0.40;;;;;;;6.58;89.39;99816.16;5085027;28;20024;-69
2020/12/15 05:13:37;;;;;;;0.65;0.65;;;;;;;6.49;89.62;99800.69;5085138;28;20492;-68
2020/12/15 05:16:02;;;;;;;0.20;0.20;;;;;;;6.59;89.75;99812.72;5084751;28;20039;-71
2020/12/15 05:18:27;;;;;;;0.52;0.52;;;;;;;6.59;89.90;99810.13;5085036;28;20032;-68
2020/12/15 05:20:53;;;;;;;1.45;1.38;;;;;;;6.68;89.49;99817.84;5084821;28;20024;-68
2020/12/15 05:23:21;;;;;;;6.03;3.85;;;;;;;6.68;89.37;99811.81;5085022;28;20025;-68
2020/12/15 05:25:47;;;;;;;0.32;0.32;;;;;;;6.71;89.15;99818.72;5084744;28;20025;-68
2020/12/15 05:28:14;;;;;;;1.10;1.10;;;;;;;6.63;89.42;99808.41;5084609;28;20083;-71
2020/12/15 05:30:40;;;;;;;1.35;1.33;;;;;;;6.68;89.14;99814.41;5084704;28;20028;-68
2020/12/15 05:33:15;;;;;;;0.32;0.32;;;;;;;6.66;89.37;99811.84;5084504;28;20055;-69
2020/12/15 05:35:41;;;;;;;0.30;0.30;;;;;;;6.64;89.39;99805.84;5084564;28;20119;-68
2020/12/15 05:38:08;;;;;;;0.20;0.20;;;;;;;6.60;89.49;99817.00;5084454;28;20031;-68
2020/12/15 05:40:34;;;;;;;0.40;0.40;;;;;;;6.63;89.58;99824.72;5083386;28;20046;-71
2020/12/15 05:43:01;;;;;;;0.20;0.20;;;;;;;6.64;89.44;99817.88;5083547;28;20021;-69
2020/12/15 05:45:28;;;;;;;0.93;0.93;;;;;;;6.65;89.21;99825.59;5084126;28;20028;-69
2020/12/15 05:48:07;;;;;;;0.32;0.32;;;;;;;6.62;89.22;99820.44;5082538;28;20020;-69
2020/12/15 05:50:34;;;;;;;0.30;0.30;;;;;;;6.64;89.49;99829.06;5084098;28;20024;-69
2020/12/15 05:53:02;;;;;;;5.05;3.80;;;;;;;6.64;89.54;99834.22;5084084;28;20025;-69
2020/12/15 05:55:28;;;;;;;0.32;0.32;;;;;;;6.59;89.45;99825.63;5084070;28;20135;-69
2020/12/15 05:57:54;;;;;;;0.32;0.32;;;;;;;6.58;89.75;99826.47;5083802;28;20060;-68
2020/12/15 06:00:21;;;;;;;0.30;0.30;;;;;;;6.60;89.85;99824.75;5084167;28;20315;-69
2020/12/15 06:03:04;;;;;;;0.20;0.20;;;;;;;6.74;89.62;99827.28;5083668;28;20091;-68
2020/12/15 06:05:38;;;;;;;0.30;0.30;;;;;;;6.73;89.35;99830.75;5083777;28;20036;-70
2020/12/15 06:08:05;;;;;;;1.05;1.05;;;;;;;6.72;89.24;99823.00;5083445;28;20051;-71
2020/12/15 06:10:33;;;;;;;0.20;0.20;;;;;;;6.90;88.36;99822.97;5083825;28;20028;-74
2020/12/15 06:13:00;;;;;;;0.30;0.30;;;;;;;6.73;88.87;99810.09;5083680;28;20036;-72
2020/12/15 06:15:28;;;;;;;0.20;0.20;;;;;;;6.81;88.48;99813.53;5084023;28;20016;-69
2020/12/15 06:17:56;;;;;;;0.30;0.30;;;;;;;6.67;89.25;99803.25;5083472;28;20020;-72
2020/12/15 06:20:22;;;;;;;0.30;0.30;;;;;;;6.72;89.16;99805.81;5083668;28;20028;-70
2020/12/15 06:22:52;;;;;;;0.30;0.30;;;;;;;6.79;88.87;99812.66;5083682;28;20070;-71
2020/12/15 06:25:25;;;;;;;0.30;0.30;;;;;;;6.67;89.34;99810.13;5084051;28;20028;-71
2020/12/15 06:27:59;;;;;;;0.30;0.30;;;;;;;6.69;89.36;99814.41;5083655;28;20020;-69
2020/12/15 06:30:28;;;;;;;0.98;0.98;;;;;;;6.74;89.05;99810.97;5083637;28;20035;-70
2020/12/15 06:33:05;;;;;;;0.20;0.20;;;;;;;6.78;89.13;99810.09;5083377;28;20084;-72
2020/12/15 06:35:31;;;;;;;0.73;0.73;;;;;;;6.75;89.38;99810.09;5083470;28;20098;-72
2020/12/15 06:37:56;;;;;;;6.25;3.15;;;;;;;6.78;89.25;99804.94;5081767;28;20063;-71
2020/12/15 06:40:22;;;;;;;0.30;0.30;;;;;;;6.91;88.54;99808.34;5083438;28;20480;-72
2020/12/15 06:42:52;;;;;;;0.30;0.30;;;;;;;6.80;88.97;99810.97;5083429;28;20032;-71
2020/12/15 06:45:22;;;;;;;0.30;0.30;;;;;;;6.84;89.05;99809.25;5083327;28;20052;-71
2020/12/15 06:47:56;;;;;;;3.05;1.77;;;;;;;6.92;88.69;99802.31;5082971;28;20047;-72
2020/12/15 06:50:21;;;;;;;0.32;0.32;;;;;;;7.02;88.26;99808.31;5083191;28;20051;-76
2020/12/15 06:52:47;;;;;;;0.30;0.30;;;;;;;6.86;89.00;99805.78;5083215;28;20036;-73
2020/12/15 06:55:13;;;;;;;3.30;2.15;;;;;;;6.82;89.28;99806.66;5083224;28;20035;-75
2020/12/15 06:57:39;;;;;;;1.27;1.27;;;;;;;6.84;89.21;99806.66;5083602;28;20060;-76
2020/12/15 07:00:11;;;;;;;0.30;0.30;;;;;;;6.88;89.23;99806.63;5083886;28;20028;-75
2020/12/15 07:02:38;;;;;;;2.78;2.42;;;;;;;7.03;88.39;99802.28;5082913;28;20044;-75
2020/12/15 07:05:25;;;;;;;0.38;0.38;;;;;;;6.90;89.03;99804.06;5083252;28;20029;-74
2020/12/15 07:07:56;;;;;;;0.30;0.30;;;;;;;7.01;88.50;99797.13;5083004;28;20032;-74
2020/12/15 07:10:23;;;;;;;0.30;0.30;;;;;;;6.99;88.57;99793.69;5083254;28;20027;-74
2020/12/15 07:12:49;;;;;;;0.43;0.43;;;;;;;7.12;88.29;99798.81;5083043;28;20035;-73
2020/12/15 07:15:15;;;;;;;2.67;2.40;;;;;;;6.96;88.83;99803.16;5083536;28;20052;-73
2020/12/15 07:17:49;;;;;;;0.20;0.20;;;;;;;6.92;89.04;99805.75;5083509;28;20074;-73
2020/12/15 07:20:16;;;;;;;0.20;0.20;;;;;;;6.99;89.01;99808.31;5084861;28;20021;-71
2020/12/15 07:22:42;;;;;;;0.20;0.20;;;;;;;7.00;88.86;99797.13;5087246;28;20392;-72
2020/12/15 07:25:10;;;;;;;0.98;0.98;;;;;;;7.07;88.54;99802.28;5086871;28;20449;-72
2020/12/15 07:27:36;;;;;;;0.25;0.25;;;;;;;7.02;88.79;99801.44;5086646;28;20388;-73
2020/12/15 07:30:03;;;;;;;0.32;0.32;;;;;;;7.01;88.92;99806.59;5084638;28;20032;-73
2020/12/15 07:32:28;;;;;;;0.40;0.40;;;;;;;7.12;88.29;99799.69;5084526;28;20126;-72
2020/12/15 07:35:08;;;;;;;0.30;0.30;;;;;;;7.12;88.37;99815.16;5087076;28;20048;-71
2020/12/15 07:37:35;;;;;;;0.63;0.63;;;;;;;7.01;88.43;99807.44;5086486;28;20025;-72
2020/12/15 07:40:04;;;;;;;0.30;0.30;;;;;;;7.11;88.27;99808.25;5086335;28;20027;-72
2020/12/15 07:42:30;;;;;;;0.30;0.30;;;;;;;7.02;88.40;99816.91;5086276;28;20044;-73
2020/12/15 07:45:00;;;;;;;0.30;0.30;;;;;;;7.01;89.06;99814.34;5086434;28;20035;-73
2020/12/15 07:47:26;;;;;;;0.20;0.20;;;;;;;7.04;88.65;99812.63;5085865;28;20029;-73
2020/12/15 07:49:56;;;;;;;0.70;0.70;;;;;;;7.11;88.44;99810.84;5086244;28;20032;-73
2020/12/15 07:52:33;;;;;;;0.43;0.43;;;;;;;7.24;87.82;99815.97;5086072;28;20026;-73
2020/12/15 07:55:04;;;;;;;0.30;0.30;;;;;;;7.28;87.56;99813.38;5086174;28;20131;-74
2020/12/15 07:57:32;;;;;;;1.20;1.10;;;;;;;7.07;88.34;99801.41;5084466;28;20020;-73
2020/12/15 08:00:00;;;;;;;0.22;0.22;;;;;;;7.16;88.31;99796.22;5086100;28;20024;-74
2020/12/15 08:02:25;;;;;;;0.30;0.30;;;;;;;7.06;88.89;99805.72;5085701;28;20044;-74
2020/12/15 08:04:51;;;;;;;1.25;1.20;;;;;;;7.05;89.11;99808.28;5086202;28;20051;-75
2020/12/15 08:07:18;;;;;;;0.63;0.63;;;;;;;7.10;88.91;99803.09;5084392;28;20097;-73
2020/12/15 08:09:47;;;;;;;2.00;1.85;;;;;;;7.10;88.89;99801.41;5085956;28;20047;-73
2020/12/15 08:12:12;;;;;;;1.13;1.13;;;;;;;7.13;88.79;99803.97;5084411;28;20055;-74
2020/12/15 08:14:39;;;;;;;2.28;1.00;;;;;;;7.10;88.97;99822.06;5085864;28;20602;-74
2020/12/15 08:17:12;;;;;;;0.30;0.30;;;;;;;7.10;89.01;99810.84;5085558;28;20020;-74
2020/12/15 08:19:39;;;;;;;0.30;0.30;;;;;;;7.10;89.10;99819.47;5085753;28;20020;-75
2020/12/15 08:22:04;;;;;;;0.30;0.30;;;;;;;7.21;88.60;99814.25;5085811;28;20036;-76
2020/12/15 08:24:30;;;;;;;0.95;0.93;;;;;;;7.18;88.41;99814.28;5085848;28;20020;-76
2020/12/15 08:26:55;;;;;;;2.97;2.88;;;;;;;7.22;88.14;99809.97;5085523;28;20055;-75
2020/12/15 08:29:28;;;;;;;0.40;0.40;;;;;;;7.18;88.45;99809.97;5085236;28;20040;-76
2020/12/15 08:31:53;;;;;;;0.30;0.30;;;;;;;7.25;88.15;99810.78;5084131;28;20062;-75
2020/12/15 08:34:20;;;;;;;0.30;0.30;;;;;;;7.14;88.59;99803.09;5085544;28;20025;-75
2020/12/15 08:36:50;;;;;;;0.30;0.30;;;;;;;7.20;88.39;99812.56;5085589;28;20020;-77
2020/12/15 08:39:23;;;;;;;0.65;0.52;;;;;;;7.22;88.54;99815.97;5085706;28;20021;-78
2020/12/15 08:41:50;;;;;;;0.20;0.20;;;;;;;7.15;88.62;99817.75;5085639;28;20024;-77
2020/12/15 08:44:17;;;;;;;0.20;0.20;;;;;;;7.15;88.31;99815.16;5084567;28;20016;-77
2020/12/15 08:46:43;;;;;;;0.93;0.93;;;;;;;7.36;87.45;99797.84;5085317;28;20077;-79
2020/12/15 08:49:13;;;;;;;0.30;0.30;;;;;;;7.38;87.79;99809.00;5085668;28;20730;-81
2020/12/15 08:51:40;;;;;;;0.50;0.50;;;;;;;7.45;86.75;99802.09;5085956;28;20025;-78
2020/12/15 08:54:07;;;;;;;0.20;0.20;;;;;;;7.30;87.47;99810.78;5084155;28;20047;-76
2020/12/15 08:56:33;;;;;;;1.20;1.20;;;;;;;7.53;86.50;99804.63;5085433;28;20051;-74
2020/12/15 08:59:09;;;;;;;0.30;0.30;;;;;;;7.47;86.68;99805.53;5085316;28;20028;-72
2020/12/15 09:01:34;;;;;;;0.40;0.40;;;;;;;7.47;86.77;99812.41;5085017;28;20065;-72
2020/12/15 09:03:59;;;;;;;0.20;0.20;;;;;;;7.31;87.26;99809.91;5085371;28;20032;-72
2020/12/15 09:06:35;;;;;;;0.30;0.30;;;;;;;7.16;88.14;99819.44;5085144;28;20039;-71
2020/12/15 09:09:01;;;;;;;0.30;0.30;;;;;;;7.14;88.57;99815.16;5083688;28;20497;-70
2020/12/15 09:11:26;;;;;;;0.40;0.40;;;;;;;7.15;88.58;99824.59;5085097;28;20028;-72
2020/12/15 09:13:57;;;;;;;0.30;0.30;;;;;;;7.19;88.86;99828.88;5085201;28;20055;-72
2020/12/15 09:16:33;;;;;;;0.30;0.30;;;;;;;7.26;88.75;99824.56;5084658;28;20020;-73
2020/12/15 09:19:16;;;;;;;0.20;0.20;;;;;;;7.30;88.45;99818.53;5084957;28;20734;-72
2020/12/15 09:21:53;;;;;;;0.88;0.88;;;;;;;7.33;88.29;99813.38;5084757;28;20126;-71
2020/12/15 09:24:19;;;;;;;0.20;0.20;;;;;;;7.27;88.59;99798.72;5084786;28;20032;-73
2020/12/15 09:26:45;;;;;;;0.20;0.20;;;;;;;7.40;88.23;99806.41;5084707;28;20078;-74
2020/12/15 09:29:11;;;;;;;2.20;2.05;;;;;;;7.46;87.81;99792.63;5083340;28;20044;-74
2020/12/15 09:31:37;;;;;;;0.35;0.35;;;;;;;7.41;87.81;99790.91;5084332;28;20032;-73
2020/12/15 09:34:03;;;;;;;0.30;0.30;;;;;;;7.42;87.87;99797.81;5083345;28;20047;-73
2020/12/15 09:36:28;;;;;;;0.30;0.30;;;;;;;7.38;88.37;99814.19;5084575;28;20040;-71
2020/12/15 09:38:53;;;;;;;0.32;0.32;;;;;;;7.40;88.00;99803.84;5084476;28;20052;-71
2020/12/15 09:41:19;;;;;;;0.40;0.40;;;;;;;7.41;88.07;99808.16;5083572;28;20029;-72
2020/12/15 09:43:45;;;;;;;0.30;0.30;;;;;;;7.44;87.96;99796.06;5083222;28;20393;-73
2020/12/15 09:46:10;;;;;;;0.38;0.38;;;;;;;7.53;87.45;99799.47;5083786;28;20044;-72
2020/12/15 09:48:35;;;;;;;0.30;0.30;;;;;;;7.40;87.59;99788.34;5083329;28;20028;-72
2020/12/15 09:51:01;;;;;;;0.30;0.30;;;;;;;7.48;87.29;99796.03;5084402;28;20092;-73
2020/12/15 09:53:27;;;;;;;0.40;0.40;;;;;;;7.57;86.70;99780.53;5084173;28;20016;-74
2020/12/15 09:55:53;;;;;;;0.30;0.30;;;;;;;7.38;87.48;99783.19;5084116;28;20025;-74
2020/12/15 09:58:18;;;;;;;2.78;2.58;;;;;;;7.30;87.83;99783.22;5084150;28;20174;-74
2020/12/15 10:00:44;;;;;;;0.20;0.20;;;;;;;7.48;87.27;99786.59;5084037;28;20016;-73
2020/12/15 10:03:09;;;;;;;0.30;0.30;;;;;;;7.49;87.45;99782.28;5084068;28;20044;-74
2020/12/15 10:05:34;;;;;;;0.30;0.30;;;;;;;7.35;87.72;99774.63;5083401;28;20056;-76
2020/12/15 10:08:00;;;;;;;0.50;0.50;;;;;;;7.32;87.52;99781.50;5083077;28;20027;-74
2020/12/15 10:10:28;;;;;;;0.30;0.30;;;;;;;7.33;87.41;99769.47;5083460;28;20024;-74
2020/12/15 10:12:53;;;;;;;0.20;0.20;;;;;;;7.24;87.83;99782.38;5084138;28;20035;-74
2020/12/15 10:15:19;;;;;;;0.30;0.30;;;;;;;7.40;87.47;99778.00;5084009;28;20028;-75
2020/12/15 10:17:44;;;;;;;7.90;3.97;;;;;;;7.30;87.29;99766.91;5083507;28;20017;-75
2020/12/15 10:20:09;;;;;;;0.30;0.30;;;;;;;7.28;87.66;99774.66;5084013;28;20047;-77
2020/12/15 10:22:35;;;;;;;0.30;0.30;;;;;;;7.33;87.48;99769.47;5082863;28;20032;-76
2020/12/15 10:25:01;;;;;;;0.30;0.30;;;;;;;7.30;87.72;99764.31;5083559;28;20020;-76
2020/12/15 10:27:26;;;;;;;0.52;0.52;;;;;;;7.20;87.85;99763.50;5083521;28;20040;-76
2020/12/15 10:29:51;;;;;;;0.30;0.30;;;;;;;7.16;88.14;99764.34;5083545;28;20031;-77
2020/12/15 10:32:17;;;;;;;0.63;0.63;;;;;;;7.40;87.69;99762.50;5081850;28;20030;-79
2020/12/15 10:34:42;;;;;;;0.30;0.30;;;;;;;7.19;87.99;99757.47;5081982;28;20024;-78
2020/12/15 10:37:08;;;;;;;0.28;0.28;;;;;;;7.55;86.93;99748.66;5083275;28;20020;-77
2020/12/15 10:39:33;;;;;;;0.30;0.30;;;;;;;7.18;87.76;99749.72;5081978;28;20166;-76
2020/12/15 10:41:59;;;;;;;0.40;0.40;;;;;;;7.24;87.64;99747.13;5083342;28;20028;-75
2020/12/15 10:44:24;;;;;;;0.30;0.30;;;;;;;7.23;87.96;99757.44;5081761;28;20070;-75
2020/12/15 10:46:50;;;;;;;0.30;0.30;;;;;;;7.21;87.82;99751.44;5082827;28;20111;-76
2020/12/15 10:49:17;;;;;;;0.30;0.30;;;;;;;7.03;88.58;99741.19;5083229;28;20497;-75
2020/12/15 10:51:43;;;;;;;0.30;0.30;;;;;;;7.18;88.41;99745.44;5083407;28;20389;-74
2020/12/15 10:54:09;;;;;;;0.43;0.43;;;;;;;7.18;88.29;99753.19;5083460;28;20040;-74
2020/12/15 10:56:34;;;;;;;0.30;0.30;;;;;;;7.24;87.94;99756.56;5081876;28;20072;-73
2020/12/15 10:59:00;;;;;;;0.52;0.52;;;;;;;7.16;88.19;99744.56;5083030;28;20029;-72
2020/12/15 11:01:26;;;;;;;0.30;0.30;;;;;;;7.06;88.78;99745.50;5082842;28;20016;-73
2020/12/15 11:03:52;;;;;;;0.30;0.30;;;;;;;7.13;88.67;99756.63;5081680;28;20064;-71
2020/12/15 11:06:19;;;;;;;0.30;0.30;;;;;;;7.09;88.71;99758.38;5083049;28;20103;-72
2020/12/15 11:08:45;;;;;;;1.00;1.00;;;;;;;7.21;88.32;99756.59;5082525;28;20024;-75
2020/12/15 11:11:11;;;;;;;0.50;0.50;;;;;;;7.15;88.44;99758.34;5078519;28;20016;-75
2020/12/15 11:13:37;;;;;;;0.20;0.20;;;;;;;7.18;88.35;99757.47;5078469;28;20048;-74
2020/12/15 11:16:02;;;;;;;0.43;0.43;;;;;;;7.16;88.35;99747.16;5083257;28;20012;-74
2020/12/15 11:18:28;;;;;;;0.30;0.30;;;;;;;7.11;88.14;99751.47;5082705;28;20020;-73
2020/12/15 11:20:53;;;;;;;0.28;0.28;;;;;;;7.25;87.83;99746.25;5083094;28;20099;-70
2020/12/15 11:23:18;;;;;;;0.40;0.40;;;;;;;7.07;88.31;99747.22;5083130;28;20028;-71
2020/12/15 11:25:47;;;;;;;0.20;0.20;;;;;;;7.12;88.22;99752.34;5082870;28;20024;-73
2020/12/15 11:28:12;;;;;;;0.30;0.30;;;;;;;7.02;88.54;99749.81;5082948;28;20035;-76
2020/12/15 11:30:38;;;;;;;0.30;0.30;;;;;;;7.01;88.71;99765.31;5081393;28;20024;-75
2020/12/15 11:33:03;;;;;;;1.23;0.95;;;;;;;7.08;88.54;99751.50;5082620;28;20049;-76
2020/12/15 11:35:29;;;;;;;0.20;0.20;;;;;;;6.98;88.74;99760.16;5080767;28;20028;-78
2020/12/15 11:37:55;;;;;;;0.30;0.30;;;;;;;6.92;88.71;99741.25;5082862;28;20024;-74
2020/12/15 11:40:20;;;;;;;0.20;0.20;;;;;;;6.94;88.88;99742.09;5082817;28;20096;-73